createdAt,value
2023-02-06T00:01:37.824Z,-0.94
2023-02-06T00:04:06.305Z,-1.15
2023-02-06T00:06:36.354Z,-0.56
2023-02-06T00:09:05.343Z,-0.51
2023-02-06T00:11:34.237Z,-0.83
2023-02-06T00:14:02.954Z,-0.27
2023-02-06T00:16:33.443Z,-0.03
2023-02-06T00:19:02.630Z,-0.46
2023-02-06T00:21:32.004Z,-1.09
2023-02-06T00:24:03.044Z,-0.94
2023-02-06T00:26:32.565Z,-0.49
2023-02-06T00:29:01.002Z,-0.01
2023-02-06T00:31:29.551Z,-0.49
2023-02-06T00:33:57.901Z,-1.27
2023-02-06T00:36:26.206Z,-0.58
2023-02-06T00:38:54.529Z,-0.65
2023-02-06T00:41:24.277Z,-0.72
2023-02-06T00:43:52.752Z,-0.53
2023-02-06T00:46:22.025Z,-0.70
2023-02-06T00:48:50.355Z,-0.33
2023-02-06T00:51:18.715Z,-0.46
2023-02-06T00:53:48.595Z,-0.53
2023-02-06T00:56:18.539Z,-0.43
2023-02-06T00:58:49.627Z,-0.44
2023-02-06T01:01:17.976Z,0.15
2023-02-06T01:03:49.239Z,-0.42
2023-02-06T01:06:18.511Z,-0.50
2023-02-06T01:08:47.338Z,-0.37
2023-02-06T01:11:18.387Z,-0.88
2023-02-06T01:13:48.278Z,-0.61
2023-02-06T01:16:18.626Z,-0.94
2023-02-06T01:18:47.102Z,-0.84
2023-02-06T01:21:18.094Z,-0.90
2023-02-06T01:23:46.599Z,-0.72
2023-02-06T01:26:17.492Z,-0.62
2023-02-06T01:28:48.713Z,-0.37
2023-02-06T01:31:20.488Z,-0.55
2023-02-06T01:33:50.747Z,-0.45
2023-02-06T01:36:20.054Z,-1.29
2023-02-06T01:38:49.096Z,-0.24
2023-02-06T01:41:19.072Z,-0.50
2023-02-06T01:44:10.665Z,-0.48
2023-02-06T01:46:39.946Z,-0.59
2023-02-06T01:49:11.456Z,-0.32
2023-02-06T01:51:40.668Z,-0.49
2023-02-06T01:54:10.277Z,-0.42
2023-02-06T01:56:42.786Z,-0.28
2023-02-06T01:59:13.826Z,-0.81
2023-02-06T02:01:43.027Z,-0.92
2023-02-06T02:04:16.039Z,-0.87
2023-02-06T02:06:46.196Z,-0.75
2023-02-06T02:09:15.198Z,-0.78
2023-02-06T02:11:43.441Z,-0.69
2023-02-06T02:14:16.853Z,-0.79
2023-02-06T02:16:56.331Z,-0.66
2023-02-06T02:20:11.995Z,-1.86
2023-02-06T02:22:56.690Z,-0.34
2023-02-06T02:25:58.663Z,-0.75
2023-02-06T02:28:46.083Z,-0.62
2023-02-06T02:31:48.456Z,-1.26
2023-02-06T02:34:38.978Z,-0.44
2023-02-06T02:37:17.468Z,-0.69
2023-02-06T02:39:53.198Z,-0.54
2023-02-06T02:42:29.483Z,-0.57
2023-02-06T02:45:04.453Z,-1.19
2023-02-06T02:47:47.914Z,-1.16
2023-02-06T02:50:19.746Z,-1.01
2023-02-06T02:52:48.147Z,-0.85
2023-02-06T02:55:18.582Z,-0.75
2023-02-06T02:57:49.171Z,-0.75
2023-02-06T03:00:19.317Z,-0.57
2023-02-06T03:02:50.368Z,-0.44
2023-02-06T03:05:24.531Z,-0.19
2023-02-06T03:08:05.786Z,-0.23
2023-02-06T03:10:40.724Z,0.08
2023-02-06T03:13:16.528Z,0.37
2023-02-06T03:15:51.309Z,0.08
2023-02-06T03:18:24.582Z,-0.24
2023-02-06T03:20:54.897Z,-0.22
2023-02-06T03:23:29.562Z,-0.33
2023-02-06T03:26:02.724Z,0.12
2023-02-06T03:28:36.072Z,-0.67
2023-02-06T03:31:10.508Z,-0.72
2023-02-06T03:33:43.154Z,-0.79
2023-02-06T03:36:17.341Z,-0.51
2023-02-06T03:38:47.021Z,-0.91
2023-02-06T03:41:16.976Z,-0.57
2023-02-06T03:43:48.254Z,-0.16
2023-02-06T03:46:19.074Z,-0.50
2023-02-06T03:48:51.009Z,-0.41
2023-02-06T03:51:25.165Z,-0.28
2023-02-06T03:53:55.473Z,-0.90
2023-02-06T03:56:29.511Z,-1.83
2023-02-06T03:58:57.838Z,-0.67
2023-02-06T04:01:26.363Z,-0.86
2023-02-06T04:03:55.249Z,-0.29
2023-02-06T04:06:25.180Z,-0.57
2023-02-06T04:08:53.733Z,-0.73
2023-02-06T04:14:07.590Z,-0.32
2023-02-06T04:16:35.957Z,-1.54
2023-02-06T04:19:04.321Z,-1.85
2023-02-06T04:21:33.959Z,-1.02
2023-02-06T04:24:02.246Z,-1.18
2023-02-06T04:26:30.548Z,-6.20
2023-02-06T04:28:58.767Z,-0.48
2023-02-06T04:31:27.140Z,-1.04
2023-02-06T04:33:55.734Z,-0.85
2023-02-06T04:36:23.935Z,-1.64
2023-02-06T04:38:53.678Z,-1.26
2023-02-06T04:41:21.997Z,-0.84
2023-02-06T04:43:50.240Z,-0.90
2023-02-06T04:46:19.954Z,-0.46
2023-02-06T04:48:48.270Z,-0.81
2023-02-06T04:51:16.722Z,-1.17
2023-02-06T04:53:45.247Z,-0.72
2023-02-06T04:56:15.118Z,-1.15
2023-02-06T04:58:43.516Z,-1.16
2023-02-06T05:01:11.891Z,-0.74
2023-02-06T05:03:40.275Z,-0.81
2023-02-06T05:06:08.995Z,-1.03
2023-02-06T05:08:37.319Z,-0.98
2023-02-06T05:11:06.324Z,-1.05
2023-02-06T05:13:36.425Z,-0.54
2023-02-06T05:16:07.421Z,-0.55
2023-02-06T05:18:35.854Z,-1.13
2023-02-06T05:21:04.597Z,-0.98
2023-02-06T05:23:33.683Z,-0.81
2023-02-06T05:26:02.394Z,-0.86
2023-02-06T05:28:33.617Z,-1.00
2023-02-06T05:31:04.933Z,-1.42
2023-02-06T05:33:33.412Z,-1.23
2023-02-06T05:36:06.772Z,-1.00
2023-02-06T05:38:35.707Z,-1.29
2023-02-06T05:41:03.950Z,-0.98
2023-02-06T05:43:32.813Z,-1.48
2023-02-06T05:46:01.165Z,-1.25
2023-02-06T05:48:30.992Z,-1.20
2023-02-06T05:50:59.478Z,-1.09
2023-02-06T05:53:28.255Z,-1.45
2023-02-06T05:55:56.919Z,-1.16
2023-02-06T05:58:25.250Z,-1.14
2023-02-06T06:00:55.306Z,-1.42
2023-02-06T06:03:23.621Z,-1.87
2023-02-06T06:05:53.630Z,-1.15
2023-02-06T06:08:22.536Z,-1.05
2023-02-06T06:10:51.961Z,-1.27
2023-02-06T06:13:20.468Z,-1.22
2023-02-06T06:15:52.245Z,-0.89
2023-02-06T06:18:20.961Z,-1.32
2023-02-06T06:20:50.007Z,-1.14
2023-02-06T06:23:19.737Z,-0.37
2023-02-06T06:25:48.632Z,-0.29
2023-02-06T06:28:17.056Z,-0.21
2023-02-06T06:30:45.478Z,-0.03
2023-02-06T06:33:16.555Z,-0.59
2023-02-06T06:35:44.864Z,-0.45
2023-02-06T06:38:30.632Z,-0.24
2023-02-06T06:41:00.265Z,0.13
2023-02-06T06:43:28.884Z,-0.12
2023-02-06T06:45:57.385Z,-0.19
2023-02-06T06:48:26.094Z,-0.41
2023-02-06T06:50:54.632Z,0.73
2023-02-06T06:53:23.174Z,0.24
2023-02-06T06:55:51.482Z,0.85
2023-02-06T06:58:21.495Z,0.80
2023-02-06T07:00:49.810Z,1.48
2023-02-06T07:03:18.048Z,1.48
2023-02-06T07:05:47.464Z,1.25
2023-02-06T07:08:15.769Z,1.93
2023-02-06T07:10:44.186Z,1.24
2023-02-06T07:13:12.404Z,2.68
2023-02-06T07:15:42.088Z,2.05
2023-02-06T07:18:11.817Z,2.39
2023-02-06T07:20:40.375Z,2.95
2023-02-06T07:23:08.801Z,3.13
2023-02-06T07:25:37.396Z,3.08
2023-02-06T07:28:06.068Z,3.01
2023-02-06T07:30:34.505Z,3.57
2023-02-06T07:33:05.855Z,4.11
2023-02-06T07:35:34.646Z,4.16
2023-02-06T07:38:03.110Z,3.39
2023-02-06T07:40:44.165Z,3.47
2023-02-06T07:43:13.813Z,3.80
2023-02-06T07:45:42.661Z,4.14
2023-02-06T07:48:12.632Z,4.44
2023-02-06T07:50:40.967Z,4.18
2023-02-06T07:53:09.210Z,4.16
2023-02-06T07:55:38.975Z,3.04
2023-02-06T07:58:07.619Z,4.69
2023-02-06T08:00:35.909Z,4.85
2023-02-06T08:03:05.177Z,5.95
2023-02-06T08:05:35.956Z,4.73
2023-02-06T08:08:04.425Z,3.95
2023-02-06T08:10:33.824Z,6.26
2023-02-06T08:13:02.214Z,6.12
2023-02-06T08:15:30.561Z,5.24
2023-02-06T08:17:59.073Z,6.11
2023-02-06T08:20:27.409Z,5.27
2023-02-06T08:22:57.267Z,6.62
2023-02-06T08:25:26.596Z,5.67
2023-02-06T08:27:55.988Z,6.32
2023-02-06T08:30:24.813Z,6.76
2023-02-06T08:32:53.190Z,6.53
2023-02-06T08:35:21.671Z,6.91
2023-02-06T08:37:50.075Z,7.47
2023-02-06T08:40:21.355Z,6.89
2023-02-06T08:42:52.274Z,6.61
2023-02-06T08:45:20.574Z,7.01
2023-02-06T08:47:48.813Z,7.75
2023-02-06T08:50:17.716Z,6.88
2023-02-06T08:52:46.013Z,7.08
2023-02-06T08:55:14.348Z,6.71
2023-02-06T08:57:44.062Z,7.34
2023-02-06T09:00:13.728Z,7.41
2023-02-06T09:02:42.117Z,7.68
2023-02-06T09:05:10.550Z,7.89
2023-02-06T09:10:27.832Z,7.56
2023-02-06T09:12:57.882Z,7.69
2023-02-06T09:15:26.220Z,8.62
2023-02-06T09:17:54.483Z,8.91
2023-02-06T09:20:22.787Z,8.17
2023-02-06T09:22:51.101Z,8.32
2023-02-06T09:25:19.466Z,9.31
2023-02-06T09:27:47.814Z,8.11
2023-02-06T09:30:17.684Z,8.15
2023-02-06T09:32:46.067Z,9.33
2023-02-06T09:35:14.356Z,8.58
2023-02-06T09:37:42.695Z,8.83
2023-02-06T09:40:13.983Z,8.82
2023-02-06T09:42:43.579Z,8.18
2023-02-06T09:45:17.963Z,9.15
2023-02-06T09:47:51.799Z,9.24
2023-02-06T09:50:26.704Z,8.36
2023-02-06T09:53:14.362Z,8.03
2023-02-06T09:55:46.391Z,8.68
2023-02-06T09:58:24.811Z,9.19
2023-02-06T10:00:56.732Z,9.43
2023-02-06T10:03:44.987Z,9.19
2023-02-06T10:06:19.856Z,9.16
2023-02-06T10:08:56.504Z,8.50
2023-02-06T10:11:40.101Z,8.43
2023-02-06T10:14:17.418Z,7.53
2023-02-06T10:16:49.902Z,8.51
2023-02-06T10:19:25.610Z,6.93
2023-02-06T10:21:57.589Z,6.93
2023-02-06T10:24:35.905Z,7.09
2023-02-06T10:27:10.704Z,8.43
2023-02-06T10:29:40.655Z,7.81
2023-02-06T10:32:17.782Z,7.84
2023-02-06T10:35:12.682Z,7.46
2023-02-06T10:38:02.775Z,8.17
2023-02-06T10:40:44.854Z,7.66
2023-02-06T10:43:21.346Z,8.90
2023-02-06T10:45:58.806Z,7.48
2023-02-06T10:48:34.224Z,7.27
2023-02-06T10:51:15.430Z,6.97
2023-02-06T10:53:50.101Z,7.59
2023-02-06T10:56:22.681Z,8.83
2023-02-06T10:58:56.197Z,9.23
2023-02-06T11:01:27.172Z,8.36
2023-02-06T11:04:00.413Z,7.86
2023-02-06T11:06:31.424Z,7.53
2023-02-06T11:08:59.896Z,7.43
2023-02-06T11:11:30.953Z,6.91
2023-02-06T11:14:03.196Z,7.62
2023-02-06T11:16:35.517Z,7.58
2023-02-06T11:19:16.442Z,6.72
2023-02-06T11:21:55.605Z,6.97
2023-02-06T11:24:29.416Z,6.32
2023-02-06T11:27:00.544Z,6.43
2023-02-06T11:29:32.484Z,7.54
2023-02-06T11:32:03.274Z,6.39
2023-02-06T11:34:34.625Z,7.59
2023-02-06T11:37:06.630Z,6.65
2023-02-06T11:39:37.168Z,6.45
2023-02-06T11:42:20.278Z,6.27
2023-02-06T11:44:49.782Z,6.48
2023-02-06T11:47:29.612Z,7.35
2023-02-06T11:49:58.970Z,6.50
2023-02-06T11:52:35.094Z,7.36
2023-02-06T11:55:03.411Z,8.08
2023-02-06T11:57:33.889Z,7.72
2023-02-06T12:00:06.686Z,7.30
2023-02-06T12:02:37.225Z,6.60
2023-02-06T12:05:12.092Z,6.13
2023-02-06T12:07:45.637Z,5.36
2023-02-06T12:10:17.138Z,4.81
2023-02-06T12:12:49.834Z,5.03
2023-02-06T12:15:45.308Z,6.50
2023-02-06T12:18:15.690Z,6.29
2023-02-06T12:20:50.416Z,7.50
2023-02-06T12:23:24.861Z,7.18
2023-02-06T12:25:58.027Z,7.28
2023-02-06T12:28:31.273Z,6.73
2023-02-06T12:31:04.928Z,7.21
2023-02-06T12:33:38.623Z,8.57
2023-02-06T12:36:12.534Z,7.95
2023-02-06T12:38:48.339Z,8.26
2023-02-06T12:41:28.995Z,8.53
2023-02-06T12:44:02.849Z,8.52
2023-02-06T12:46:32.303Z,8.78
2023-02-06T12:49:07.849Z,8.68
2023-02-06T12:51:40.610Z,8.93
2023-02-06T12:54:28.545Z,9.33
2023-02-06T12:57:01.405Z,9.33
2023-02-06T12:59:58.200Z,9.25
2023-02-06T13:02:51.896Z,8.86
2023-02-06T13:05:24.283Z,8.74
2023-02-06T13:07:55.749Z,7.54
2023-02-06T13:10:27.390Z,7.38
2023-02-06T13:12:57.140Z,7.03
2023-02-06T13:15:27.279Z,6.85
2023-02-06T13:17:57.190Z,6.45
2023-02-06T13:20:27.100Z,6.25
2023-02-06T13:22:56.906Z,6.63
2023-02-06T13:25:53.918Z,6.23
2023-02-06T13:28:42.094Z,6.23
2023-02-06T13:31:24.657Z,5.90
2023-02-06T13:33:56.418Z,6.06
2023-02-06T13:36:42.892Z,5.51
2023-02-06T13:39:16.896Z,5.85
2023-02-06T13:41:46.817Z,6.06
2023-02-06T13:44:20.189Z,4.18
2023-02-06T13:47:18.687Z,4.81
2023-02-06T13:50:25.526Z,4.67
2023-02-06T13:53:11.271Z,4.35
2023-02-06T13:55:52.460Z,4.50
2023-02-06T13:58:39.387Z,4.80
2023-02-06T14:01:14.626Z,4.79
2023-02-06T14:03:48.636Z,4.25
2023-02-06T14:06:33.623Z,4.38
2023-02-06T14:09:13.966Z,4.77
2023-02-06T14:12:13.751Z,5.25
2023-02-06T14:14:59.175Z,4.06
2023-02-06T14:17:44.387Z,5.39
2023-02-06T14:20:24.351Z,4.56
2023-02-06T14:23:05.880Z,4.64
2023-02-06T14:25:49.776Z,4.46
2023-02-06T14:28:27.095Z,4.54
2023-02-06T14:31:08.526Z,4.03
2023-02-06T14:34:01.442Z,4.61
2023-02-06T14:36:53.137Z,5.39
2023-02-06T14:39:52.777Z,5.29
2023-02-06T14:42:25.662Z,5.03
2023-02-06T14:44:57.835Z,5.30
2023-02-06T14:47:30.635Z,4.20
2023-02-06T14:50:01.620Z,4.58
2023-02-06T14:52:35.617Z,4.03
2023-02-06T14:55:29.893Z,4.09
2023-02-06T14:57:58.640Z,4.02
2023-02-06T15:00:27.639Z,4.36
2023-02-06T15:03:18.255Z,4.55
2023-02-06T15:05:47.062Z,4.66
2023-02-06T15:08:21.580Z,4.41
2023-02-06T15:10:58.871Z,4.42
2023-02-06T15:13:34.970Z,3.36
2023-02-06T15:16:05.937Z,4.65
2023-02-06T15:18:36.655Z,4.62
2023-02-06T15:21:06.918Z,3.97
2023-02-06T15:23:48.706Z,3.53
2023-02-06T15:26:28.138Z,3.29
2023-02-06T15:29:01.335Z,3.22
2023-02-06T15:31:30.882Z,3.04
2023-02-06T15:34:05.705Z,3.59
2023-02-06T15:36:36.846Z,2.88
2023-02-06T15:39:08.055Z,2.73
2023-02-06T15:41:37.214Z,2.31
2023-02-06T15:44:11.762Z,2.92
2023-02-06T15:46:40.968Z,2.46
2023-02-06T15:49:20.072Z,2.53
2023-02-06T15:51:53.917Z,3.33
2023-02-06T15:54:24.388Z,2.66
2023-02-06T15:56:55.085Z,2.47
2023-02-06T15:59:25.569Z,2.52
2023-02-06T16:01:56.817Z,3.05
2023-02-06T16:04:32.182Z,3.20
2023-02-06T16:07:17.097Z,2.23
2023-02-06T16:09:51.131Z,2.04
2023-02-06T16:12:21.446Z,2.41
2023-02-06T16:14:57.574Z,2.10
2023-02-06T16:17:32.591Z,1.63
2023-02-06T16:20:04.721Z,1.80
2023-02-06T16:22:35.646Z,2.36
2023-02-06T16:25:22.664Z,1.46
2023-02-06T16:27:52.120Z,1.66
2023-02-06T16:30:28.336Z,1.43
2023-02-06T16:32:58.314Z,1.46
2023-02-06T16:35:28.165Z,1.29
2023-02-06T16:37:57.192Z,0.94
2023-02-06T16:40:26.301Z,1.50
2023-02-06T16:42:54.651Z,1.77
2023-02-06T16:45:25.510Z,0.51
2023-02-06T16:47:54.549Z,0.57
2023-02-06T16:50:24.983Z,0.90
2023-02-06T16:52:56.739Z,1.09
2023-02-06T16:55:27.310Z,0.63
2023-02-06T16:57:58.809Z,0.81
2023-02-06T17:00:31.265Z,0.91
2023-02-06T17:03:00.580Z,1.26
2023-02-06T17:05:31.661Z,1.12
2023-02-06T17:08:04.080Z,0.58
2023-02-06T17:10:32.453Z,1.17
2023-02-06T17:13:00.758Z,1.32
2023-02-06T17:15:29.442Z,0.84
2023-02-06T17:17:57.850Z,0.30
2023-02-06T17:20:33.656Z,1.50
2023-02-06T17:23:04.482Z,0.89
2023-02-06T17:25:33.824Z,0.62
2023-02-06T17:28:03.368Z,0.58
2023-02-06T17:30:32.457Z,0.37
2023-02-06T17:33:01.062Z,0.24
2023-02-06T17:35:30.637Z,1.35
2023-02-06T17:38:02.541Z,1.60
2023-02-06T17:40:35.538Z,1.52
2023-02-06T17:43:07.308Z,1.67
2023-02-06T17:45:40.043Z,0.89
2023-02-06T17:48:09.496Z,0.74
2023-02-06T17:50:45.786Z,1.23
2023-02-06T17:53:15.431Z,1.34
2023-02-06T17:55:47.608Z,1.88
2023-02-06T17:58:18.484Z,1.47
2023-02-06T18:00:49.384Z,1.21
2023-02-06T18:03:18.563Z,1.33
2023-02-06T18:05:51.424Z,-0.12
2023-02-06T18:08:28.178Z,0.58
2023-02-06T18:11:38.009Z,1.19
2023-02-06T18:14:21.043Z,0.56
2023-02-06T18:17:04.810Z,-0.41
2023-02-06T18:19:42.016Z,-0.38
2023-02-06T18:22:22.071Z,0.37
2023-02-06T18:24:51.460Z,0.40
2023-02-06T18:27:23.253Z,0.70
2023-02-06T18:29:55.250Z,0.21
2023-02-06T18:32:23.543Z,0.91
2023-02-06T18:34:54.627Z,0.61
2023-02-06T18:37:23.144Z,0.55
2023-02-06T18:39:58.054Z,0.74
2023-02-06T18:43:06.422Z,1.02
2023-02-06T18:45:37.842Z,1.08
2023-02-06T18:48:12.716Z,0.88
2023-02-06T18:50:44.860Z,1.44
2023-02-06T18:53:13.386Z,0.88
2023-02-06T18:55:41.811Z,1.05
2023-02-06T18:58:11.560Z,0.84
2023-02-06T19:00:42.563Z,0.79
2023-02-06T19:03:10.948Z,0.50
2023-02-06T19:05:39.435Z,0.25
2023-02-06T19:08:21.224Z,0.61
2023-02-06T19:10:49.669Z,-0.05
2023-02-06T19:13:19.539Z,-0.16
2023-02-06T19:15:47.978Z,0.24
2023-02-06T19:18:18.183Z,0.33
2023-02-06T19:20:48.506Z,0.50
2023-02-06T19:23:16.955Z,0.33
2023-02-06T19:25:45.575Z,0.83
2023-02-06T19:28:14.007Z,0.86
2023-02-06T19:30:44.043Z,0.46
2023-02-06T19:33:12.377Z,-1.15
2023-02-06T19:35:41.475Z,0.00
2023-02-06T19:38:09.877Z,0.83
2023-02-06T19:40:39.331Z,-0.41
2023-02-06T19:43:07.781Z,0.33
2023-02-06T19:45:37.660Z,0.39
2023-02-06T19:48:15.261Z,0.44
2023-02-06T19:50:43.817Z,0.19
2023-02-06T19:53:17.137Z,0.40
2023-02-06T19:55:49.012Z,0.21
2023-02-06T19:58:18.969Z,0.41
2023-02-06T20:01:00.863Z,0.12
2023-02-06T20:03:30.968Z,-0.30
2023-02-06T20:06:35.230Z,0.41
2023-02-06T20:09:13.518Z,0.55
2023-02-06T20:11:42.576Z,0.53
2023-02-06T20:14:12.342Z,0.57
2023-02-06T20:16:42.571Z,-0.18
2023-02-06T20:19:14.461Z,0.07
2023-02-06T20:21:45.228Z,0.28
2023-02-06T20:24:16.076Z,-1.44
2023-02-06T20:26:47.377Z,-0.22
2023-02-06T20:29:22.031Z,-0.36
2023-02-06T20:31:51.079Z,-0.33
2023-02-06T20:34:21.945Z,-0.35
2023-02-06T20:36:57.347Z,-0.42
2023-02-06T20:39:28.833Z,-0.32
2023-02-06T20:41:57.412Z,-0.06
2023-02-06T20:44:26.455Z,-0.57
2023-02-06T20:46:54.866Z,-0.80
2023-02-06T20:49:27.396Z,-0.62
2023-02-06T20:51:56.431Z,-0.78
2023-02-06T20:54:25.787Z,0.09
2023-02-06T20:56:57.617Z,-0.05
2023-02-06T20:59:26.148Z,-0.02
2023-02-06T21:01:54.665Z,-0.76
2023-02-06T21:04:24.636Z,-0.69
2023-02-06T21:06:52.958Z,-0.60
2023-02-06T21:09:21.451Z,-1.84
2023-02-06T21:11:59.661Z,-0.09
2023-02-06T21:15:15.046Z,-0.53
2023-02-06T21:17:49.713Z,-0.88
2023-02-06T21:20:19.686Z,-0.55
2023-02-06T21:22:52.999Z,-0.56
2023-02-06T21:25:26.004Z,-0.74
2023-02-06T21:27:54.566Z,-1.16
2023-02-06T21:34:09.750Z,-1.27
2023-02-06T21:36:40.509Z,-0.48
2023-02-06T21:39:15.954Z,-0.39
2023-02-06T21:41:45.002Z,-1.26
2023-02-06T21:44:51.131Z,-0.82
2023-02-06T21:47:19.724Z,-0.78
2023-02-06T21:53:19.979Z,-0.42
2023-02-06T21:55:48.591Z,-6.81
2023-02-06T21:58:16.928Z,-0.29
2023-02-06T22:00:47.018Z,-0.70
2023-02-06T22:03:16.158Z,-0.86
2023-02-06T22:06:21.401Z,-0.75
2023-02-06T22:08:53.098Z,-0.56
2023-02-06T22:11:33.756Z,-0.80
2023-02-06T22:14:03.397Z,-0.18
2023-02-06T22:16:32.009Z,-1.45
2023-02-06T22:19:01.491Z,-0.49
2023-02-06T22:21:32.081Z,-0.81
2023-02-06T22:24:06.266Z,-1.04
2023-02-06T22:26:38.813Z,-1.49
2023-02-06T22:29:08.692Z,-0.94
2023-02-06T22:31:37.600Z,-1.57
2023-02-06T22:34:06.099Z,-2.47
2023-02-06T22:36:34.906Z,-0.85
2023-02-06T22:39:07.892Z,-0.98
2023-02-06T22:41:36.797Z,-1.00
2023-02-06T22:44:05.600Z,-2.45
2023-02-06T22:46:36.413Z,-0.84
2023-02-06T22:49:06.394Z,-2.26
2023-02-06T22:51:35.299Z,-0.73
2023-02-06T22:54:06.126Z,-0.70
2023-02-06T22:56:36.966Z,-0.98
2023-02-06T22:59:08.609Z,-1.59
2023-02-06T23:01:39.136Z,-1.70
2023-02-06T23:04:10.475Z,-1.14
2023-02-06T23:06:38.958Z,-0.43
2023-02-06T23:09:10.027Z,-0.33
2023-02-06T23:11:38.762Z,-0.57
2023-02-06T23:14:08.632Z,0.12
2023-02-06T23:16:37.714Z,-0.24
2023-02-06T23:19:07.638Z,0.18
2023-02-06T23:21:38.167Z,-0.64
2023-02-06T23:24:10.186Z,-0.76
2023-02-06T23:26:39.414Z,-0.51
2023-02-06T23:29:09.143Z,-0.47
2023-02-06T23:31:38.136Z,-1.13
2023-02-06T23:34:06.704Z,-0.01
2023-02-06T23:36:35.551Z,-0.83
2023-02-06T23:39:05.568Z,-1.01
2023-02-06T23:41:36.014Z,0.10
2023-02-06T23:44:06.676Z,-0.04
2023-02-06T23:46:38.067Z,-0.29
2023-02-06T23:49:07.392Z,-0.35
2023-02-06T23:51:36.710Z,-0.38
2023-02-06T23:54:05.868Z,-0.08
2023-02-06T23:56:36.421Z,0.42
2023-02-06T23:59:06.438Z,-0.02
